Terminal Aerodrome Forecast
Issued by NWS La Crosse, WI

Home | Current Version | Previous Version | Text Only | Print | Product List | Glossary On
Versions: 1 2 3 4 5 6 7 8 9 10 11 12 13 14 15 16 17 18 19 20 21 22 23 24 25 26 27 28
000
FTUS43 KARX 301344 AAB
TAFLSE
TAF AMD
KLSE 301344Z 3014/3112 16004KT P6SM SCT003
     FM301430 16005KT P6SM SCT120 BKN250
     FM310200 17004KT P6SM BKN100=

USA.gov is the U.S. government's official web portal to all federal, state and local government web resources and services.